createdAt,value
2018-10-12T00:01:27.691Z,13.67
2018-10-12T00:03:56.915Z,15.50
2018-10-12T00:06:25.603Z,15.20
2018-10-12T00:08:54.171Z,15.72
2018-10-12T00:11:22.863Z,14.63
2018-10-12T00:13:51.890Z,15.78
2018-10-12T00:16:20.507Z,16.27
2018-10-12T00:18:49.218Z,14.90
2018-10-12T00:21:17.880Z,13.87
2018-10-12T00:23:46.515Z,14.70
2018-10-12T00:26:15.091Z,14.23
2018-10-12T00:28:43.676Z,13.90
2018-10-12T00:31:12.313Z,14.67
2018-10-12T00:33:41.893Z,13.83
2018-10-12T00:36:10.537Z,13.87
2018-10-12T00:38:39.121Z,14.43
2018-10-12T00:41:08.237Z,12.93
2018-10-12T00:43:36.772Z,15.23
2018-10-12T00:46:05.457Z,13.43
2018-10-12T00:48:34.057Z,13.90
2018-10-12T00:51:02.642Z,17.52
2018-10-12T00:53:31.286Z,14.23
2018-10-12T00:56:00.003Z,13.17
2018-10-12T00:58:28.545Z,14.13
2018-10-12T01:00:57.226Z,13.60
2018-10-12T01:03:26.047Z,14.30
2018-10-12T01:05:54.877Z,13.97
2018-10-12T01:08:24.158Z,14.30
2018-10-12T01:10:52.852Z,15.03
2018-10-12T01:13:21.572Z,12.98
2018-10-12T01:15:50.781Z,11.78
2018-10-12T01:18:19.460Z,12.60
2018-10-12T01:23:26.044Z,11.57
2018-10-12T01:25:54.751Z,11.73
2018-10-12T01:28:23.425Z,12.83
2018-10-12T01:30:52.130Z,11.20
2018-10-12T01:33:20.726Z,12.03
2018-10-12T01:35:49.428Z,14.47
2018-10-12T01:38:17.992Z,11.97
2018-10-12T01:40:46.646Z,13.22
2018-10-12T01:43:15.255Z,12.10
2018-10-12T01:45:43.920Z,9.80
2018-10-12T01:48:12.547Z,13.33
2018-10-12T01:50:41.860Z,12.60
2018-10-12T01:53:11.105Z,14.77
2018-10-12T01:55:39.675Z,12.20
2018-10-12T01:58:08.587Z,11.27
2018-10-12T02:00:37.256Z,12.33
2018-10-12T02:03:05.832Z,9.30
2018-10-12T02:05:34.454Z,13.87
2018-10-12T02:08:03.026Z,11.90
2018-10-12T02:10:31.682Z,10.03
2018-10-12T02:13:00.297Z,12.53
2018-10-12T02:15:29.333Z,11.23
2018-10-12T02:17:57.852Z,11.33
2018-10-12T02:20:26.371Z,13.53
2018-10-12T02:22:55.048Z,12.47
2018-10-12T02:25:23.640Z,11.83
2018-10-12T02:27:52.304Z,12.10
2018-10-12T02:30:20.882Z,12.20
2018-10-12T02:32:49.516Z,9.78
2018-10-12T02:35:18.155Z,11.30
2018-10-12T02:37:46.791Z,12.03
2018-10-12T02:40:15.662Z,10.67
2018-10-12T02:42:44.966Z,11.27
2018-10-12T02:45:13.535Z,9.97
2018-10-12T02:47:42.160Z,12.25
2018-10-12T02:50:11.735Z,12.20
2018-10-12T02:52:40.526Z,12.43
2018-10-12T02:55:09.147Z,13.30
2018-10-12T02:57:37.755Z,9.20
2018-10-12T03:00:06.461Z,9.20
2018-10-12T03:02:35.664Z,12.40
2018-10-12T03:05:04.380Z,11.03
2018-10-12T03:07:33.030Z,10.27
2018-10-12T03:10:01.706Z,8.83
2018-10-12T03:12:30.355Z,10.00
2018-10-12T03:14:59.190Z,10.73
2018-10-12T03:17:28.105Z,9.83
2018-10-12T03:19:56.720Z,9.73
2018-10-12T03:22:25.276Z,9.10
2018-10-12T03:24:53.871Z,13.45
2018-10-12T03:27:22.529Z,12.63
2018-10-12T03:29:51.101Z,11.20
2018-10-12T03:32:19.688Z,10.07
2018-10-12T03:34:48.459Z,11.78
2018-10-12T03:37:17.415Z,10.30
2018-10-12T03:39:45.982Z,9.70
2018-10-12T03:42:14.647Z,9.47
2018-10-12T03:44:43.224Z,9.50
2018-10-12T03:47:12.401Z,10.27
2018-10-12T03:49:41.043Z,9.23
2018-10-12T03:52:10.876Z,11.07
2018-10-12T03:54:39.617Z,11.70
2018-10-12T03:57:08.676Z,9.73
2018-10-12T03:59:37.540Z,9.53
2018-10-12T04:02:06.171Z,8.37
2018-10-12T04:04:34.701Z,8.57
2018-10-12T04:07:03.214Z,11.97
2018-10-12T04:09:32.692Z,9.57
2018-10-12T04:12:01.793Z,8.80
2018-10-12T04:14:30.441Z,8.97
2018-10-12T04:16:59.236Z,9.08
2018-10-12T04:19:27.787Z,8.57
2018-10-12T04:21:56.483Z,8.93
2018-10-12T04:24:25.168Z,10.47
2018-10-12T04:26:53.718Z,9.73
2018-10-12T04:29:22.338Z,9.70
2018-10-12T04:31:50.950Z,8.80
2018-10-12T04:34:20.123Z,8.88
2018-10-12T04:36:48.702Z,13.70
2018-10-12T04:39:28.472Z,10.90
2018-10-12T04:41:57.675Z,12.90
2018-10-12T04:44:26.582Z,10.40
2018-10-12T04:46:55.311Z,11.15
2018-10-12T04:49:24.018Z,12.85
2018-10-12T04:51:56.293Z,9.53
2018-10-12T04:54:25.305Z,10.35
2018-10-12T04:56:53.980Z,9.37
2018-10-12T04:59:22.800Z,10.28
2018-10-12T05:01:51.928Z,10.08
2018-10-12T05:04:20.591Z,10.67
2018-10-12T05:06:49.232Z,8.77
2018-10-12T05:09:17.876Z,9.27
2018-10-12T05:11:46.555Z,8.90
2018-10-12T05:14:15.197Z,10.50
2018-10-12T05:16:44.400Z,11.10
2018-10-12T05:19:13.735Z,13.97
2018-10-12T05:21:42.875Z,11.12
2018-10-12T05:24:11.507Z,9.53
2018-10-12T05:26:40.038Z,10.00
2018-10-12T05:29:08.696Z,7.57
2018-10-12T05:31:37.317Z,9.43
2018-10-12T05:34:05.978Z,9.63
2018-10-12T05:36:34.693Z,9.73
2018-10-12T05:39:03.485Z,12.03
2018-10-12T05:41:32.136Z,8.00
2018-10-12T05:44:00.834Z,10.70
2018-10-12T05:46:29.367Z,7.73
2018-10-12T05:49:09.098Z,10.23
2018-10-12T05:51:37.816Z,12.05
2018-10-12T05:54:06.602Z,10.00
2018-10-12T05:56:36.882Z,14.30
2018-10-12T05:59:06.383Z,9.23
2018-10-12T06:01:35.017Z,9.73
2018-10-12T06:04:03.740Z,10.53
2018-10-12T06:06:32.375Z,11.03
2018-10-12T06:09:01.286Z,10.30
2018-10-12T06:11:30.123Z,8.28
2018-10-12T06:13:58.705Z,9.95
2018-10-12T06:16:28.005Z,9.78
2018-10-12T06:18:56.678Z,10.63
2018-10-12T06:21:25.884Z,9.23
2018-10-12T06:23:54.516Z,12.63
2018-10-12T06:26:23.235Z,11.08
2018-10-12T06:28:51.794Z,9.25
2018-10-12T06:31:20.336Z,12.77
2018-10-12T06:33:49.501Z,9.30
2018-10-12T06:36:18.284Z,8.57
2018-10-12T06:38:46.943Z,11.97
2018-10-12T06:41:15.603Z,10.20
2018-10-12T06:43:44.167Z,11.87
2018-10-12T06:46:13.095Z,16.10
2018-10-12T06:48:42.425Z,13.57
2018-10-12T06:51:11.811Z,7.20
2018-10-12T06:53:40.379Z,8.80
2018-10-12T06:56:09.030Z,8.83
2018-10-12T06:58:37.713Z,9.43
2018-10-12T07:01:06.440Z,9.87
2018-10-12T07:03:35.135Z,7.13
2018-10-12T07:06:04.067Z,11.93
2018-10-12T07:08:32.897Z,8.47
2018-10-12T07:11:01.467Z,7.17
2018-10-12T07:13:30.165Z,6.85
2018-10-12T07:15:58.814Z,8.03
2018-10-12T07:18:28.204Z,10.80
2018-10-12T07:20:56.783Z,9.43
2018-10-12T07:23:25.422Z,8.70
2018-10-12T07:25:54.179Z,9.65
2018-10-12T07:28:22.930Z,9.77
2018-10-12T07:30:51.661Z,6.70
2018-10-12T07:33:20.311Z,11.55
2018-10-12T07:35:48.881Z,8.23
2018-10-12T07:38:17.496Z,6.37
2018-10-12T07:40:46.120Z,11.50
2018-10-12T07:43:14.656Z,8.10
2018-10-12T07:45:43.302Z,6.87
2018-10-12T07:48:12.678Z,8.43
2018-10-12T07:50:42.056Z,8.00
2018-10-12T07:53:10.615Z,6.93
2018-10-12T07:55:39.193Z,8.73
2018-10-12T07:58:09.109Z,7.60
2018-10-12T08:00:37.797Z,7.80
2018-10-12T08:03:06.563Z,8.47
2018-10-12T08:05:35.140Z,5.57
2018-10-12T08:08:03.767Z,6.77
2018-10-12T08:10:32.365Z,5.13
2018-10-12T08:13:01.029Z,8.00
2018-10-12T08:15:29.615Z,7.30
2018-10-12T08:17:58.384Z,6.87
2018-10-12T08:20:27.944Z,6.73
2018-10-12T08:22:56.505Z,6.53
2018-10-12T08:25:25.135Z,5.83
2018-10-12T08:27:53.785Z,8.10
2018-10-12T08:30:23.316Z,4.80
2018-10-12T08:32:52.156Z,6.30
2018-10-12T08:35:22.246Z,7.33
2018-10-12T08:37:51.434Z,6.73
2018-10-12T08:40:20.252Z,6.47
2018-10-12T08:42:48.835Z,6.00
2018-10-12T08:45:17.670Z,4.37
2018-10-12T08:47:46.416Z,4.93
2018-10-12T08:50:15.005Z,4.87
2018-10-12T08:52:43.690Z,4.27
2018-10-12T08:55:13.948Z,5.67
2018-10-12T08:57:44.614Z,4.60
2018-10-12T09:00:13.904Z,4.83
2018-10-12T09:02:43.560Z,5.40
2018-10-12T09:05:12.047Z,4.50
2018-10-12T09:07:40.617Z,6.63
2018-10-12T09:10:09.659Z,10.90
2018-10-12T09:12:38.790Z,5.17
2018-10-12T09:15:08.071Z,5.90
2018-10-12T09:17:36.966Z,5.10
2018-10-12T09:20:05.996Z,3.90
2018-10-12T09:22:34.674Z,8.53
2018-10-12T09:25:03.181Z,5.27
2018-10-12T09:27:32.756Z,4.47
2018-10-12T09:30:01.440Z,7.50
2018-10-12T09:32:31.299Z,7.03
2018-10-12T09:34:59.820Z,8.07
2018-10-12T09:37:28.360Z,6.37
2018-10-12T09:39:57.035Z,6.85
2018-10-12T09:42:25.734Z,8.18
2018-10-12T09:44:54.861Z,4.78
2018-10-12T09:47:23.671Z,5.90
2018-10-12T09:49:52.441Z,7.47
2018-10-12T09:52:21.112Z,5.30
2018-10-12T09:54:49.720Z,5.47
2018-10-12T09:57:23.649Z,4.10
2018-10-12T09:59:52.345Z,4.10
2018-10-12T10:03:26.202Z,5.53
2018-10-12T10:05:55.620Z,7.00
2018-10-12T10:08:24.296Z,5.00
2018-10-12T10:10:52.897Z,4.23
2018-10-12T10:13:21.669Z,6.27
2018-10-12T10:15:50.334Z,6.90
2018-10-12T10:18:19.993Z,7.00
2018-10-12T10:20:48.740Z,6.80
2018-10-12T10:23:17.454Z,5.80
2018-10-12T10:25:46.141Z,4.43
2018-10-12T10:28:14.799Z,6.60
2018-10-12T10:30:43.674Z,5.73
2018-10-12T10:33:12.503Z,5.90
2018-10-12T10:35:41.647Z,4.17
2018-10-12T10:38:10.274Z,7.07
2018-10-12T10:40:38.974Z,7.37
2018-10-12T10:43:08.231Z,5.80
2018-10-12T10:45:37.365Z,6.50
2018-10-12T10:48:06.070Z,5.53
2018-10-12T10:50:34.739Z,7.03
2018-10-12T10:53:03.394Z,4.50
2018-10-12T10:55:32.095Z,5.17
2018-10-12T10:58:00.629Z,6.87
2018-10-12T11:00:29.249Z,4.22
2018-10-12T11:02:57.821Z,5.40
2018-10-12T11:05:26.441Z,7.10
2018-10-12T11:07:55.034Z,6.43
2018-10-12T11:10:23.819Z,9.17
2018-10-12T11:12:53.066Z,5.85
2018-10-12T11:15:22.368Z,7.83
2018-10-12T11:17:51.696Z,6.80
2018-10-12T11:20:20.429Z,7.10
2018-10-12T11:22:48.975Z,7.73
2018-10-12T11:25:17.528Z,5.20
2018-10-12T11:27:46.145Z,5.50
2018-10-12T11:30:14.885Z,4.27
2018-10-12T11:32:44.260Z,6.90
2018-10-12T11:35:13.743Z,8.30
2018-10-12T11:37:42.925Z,5.73
2018-10-12T11:40:11.628Z,5.67
2018-10-12T11:42:51.424Z,7.40
2018-10-12T11:45:20.166Z,6.28
2018-10-12T11:47:48.864Z,6.33
2018-10-12T11:50:18.434Z,8.43
2018-10-12T11:52:47.163Z,5.43
2018-10-12T11:55:15.821Z,4.70
2018-10-12T11:57:44.400Z,5.37
2018-10-12T12:00:13.950Z,5.87
2018-10-12T12:02:42.654Z,8.30
2018-10-12T12:05:11.272Z,4.73
2018-10-12T12:07:39.919Z,5.73
2018-10-12T12:10:09.716Z,12.10
2018-10-12T12:12:38.314Z,6.17
2018-10-12T12:15:07.039Z,4.60
2018-10-12T12:17:35.569Z,6.43
2018-10-12T12:20:04.160Z,5.40
2018-10-12T12:22:32.726Z,4.33
2018-10-12T12:25:01.254Z,5.53
2018-10-12T12:27:29.834Z,5.47
2018-10-12T12:29:58.388Z,10.07
2018-10-12T12:32:26.948Z,3.87
2018-10-12T12:34:55.581Z,6.83
2018-10-12T12:37:24.046Z,7.83
2018-10-12T12:39:52.625Z,8.07
2018-10-12T12:42:21.243Z,8.17
2018-10-12T12:44:49.814Z,5.77
2018-10-12T12:47:18.431Z,5.10
2018-10-12T12:49:46.995Z,2.90
2018-10-12T12:52:15.567Z,8.20
2018-10-12T12:54:44.919Z,4.08
2018-10-12T12:57:13.886Z,7.77
2018-10-12T12:59:42.440Z,7.00
2018-10-12T13:02:11.561Z,8.23
2018-10-12T13:04:40.946Z,4.80
2018-10-12T13:07:09.523Z,4.47
2018-10-12T13:09:38.164Z,4.33
2018-10-12T13:12:06.873Z,3.60
2018-10-12T13:14:35.579Z,4.57
2018-10-12T13:17:04.159Z,4.03
2018-10-12T13:19:32.763Z,7.12
2018-10-12T13:22:01.492Z,3.20
2018-10-12T13:24:30.050Z,3.90
2018-10-12T13:26:58.635Z,5.17
2018-10-12T13:29:27.390Z,3.23
2018-10-12T13:31:56.274Z,4.37
2018-10-12T13:34:24.897Z,6.00
2018-10-12T13:36:53.595Z,8.33
2018-10-12T13:39:22.765Z,6.40
2018-10-12T13:41:51.310Z,6.60
2018-10-12T13:44:19.936Z,7.00
2018-10-12T13:46:49.059Z,7.60
2018-10-12T13:49:18.830Z,8.80
2018-10-12T13:51:47.579Z,6.37
2018-10-12T13:54:16.249Z,6.83
2018-10-12T13:56:45.269Z,6.67
2018-10-12T13:59:14.058Z,5.50
2018-10-12T14:01:43.200Z,6.30
2018-10-12T14:04:12.079Z,11.90
2018-10-12T14:06:40.680Z,5.17
2018-10-12T14:09:09.349Z,8.23
2018-10-12T14:11:37.996Z,5.47
2018-10-12T14:14:06.608Z,4.87
2018-10-12T14:16:35.196Z,6.90
2018-10-12T14:19:03.954Z,10.23
2018-10-12T14:21:32.351Z,10.50
2018-10-12T14:24:00.920Z,3.97
2018-10-12T14:26:29.615Z,9.13
2018-10-12T14:28:58.184Z,6.57
2018-10-12T14:31:26.864Z,10.57
2018-10-12T14:33:55.444Z,7.87
2018-10-12T14:36:24.918Z,12.50
2018-10-12T14:38:54.220Z,10.53
2018-10-12T14:41:22.755Z,8.17
2018-10-12T14:43:51.471Z,8.90
2018-10-12T14:46:20.000Z,3.67
2018-10-12T14:48:48.915Z,4.90
2018-10-12T14:51:17.465Z,9.53
2018-10-12T14:53:46.095Z,9.73
2018-10-12T14:56:15.466Z,6.28
2018-10-12T14:58:44.377Z,6.97
2018-10-12T15:01:12.928Z,7.33
2018-10-12T15:03:41.486Z,8.13
2018-10-12T15:06:10.060Z,4.53
2018-10-12T15:08:38.704Z,8.63
2018-10-12T15:11:07.436Z,8.50
2018-10-12T15:13:36.079Z,7.73
2018-10-12T15:16:05.245Z,6.00
2018-10-12T15:18:34.821Z,8.23
2018-10-12T15:21:03.412Z,6.57
2018-10-12T15:23:32.915Z,8.13
2018-10-12T15:26:01.594Z,6.25
2018-10-12T15:28:30.210Z,5.97
2018-10-12T15:30:58.775Z,8.23
2018-10-12T15:33:28.210Z,5.20
2018-10-12T15:35:56.812Z,9.30
2018-10-12T15:38:25.974Z,6.00
2018-10-12T15:40:55.194Z,7.90
2018-10-12T15:43:23.922Z,3.37
2018-10-12T15:45:52.564Z,8.05
2018-10-12T15:48:22.063Z,8.37
2018-10-12T15:50:51.244Z,5.85
2018-10-12T15:53:19.979Z,7.20
2018-10-12T15:55:48.860Z,10.67
2018-10-12T15:58:17.618Z,7.60
2018-10-12T16:00:46.447Z,10.13
2018-10-12T16:03:15.468Z,7.93
2018-10-12T16:05:44.236Z,6.40
2018-10-12T16:08:12.912Z,4.57
2018-10-12T16:10:41.578Z,6.10
2018-10-12T16:13:10.184Z,7.03
2018-10-12T16:15:38.768Z,10.37
2018-10-12T16:18:07.452Z,6.67
2018-10-12T16:20:36.029Z,6.30
2018-10-12T16:23:04.576Z,5.83
2018-10-12T16:25:54.754Z,5.70
2018-10-12T16:28:24.002Z,4.20
2018-10-12T16:30:54.273Z,4.83
2018-10-12T16:33:24.027Z,7.67
2018-10-12T16:35:54.009Z,4.97
2018-10-12T16:38:22.532Z,4.30
2018-10-12T16:40:51.505Z,5.07
2018-10-12T16:43:20.089Z,9.43
2018-10-12T16:45:50.277Z,3.13
2018-10-12T16:48:19.012Z,5.00
2018-10-12T16:50:47.903Z,5.20
2018-10-12T16:53:16.518Z,4.53
2018-10-12T16:55:46.626Z,5.53
2018-10-12T16:58:16.102Z,3.42
2018-10-12T17:00:45.695Z,4.60
2018-10-12T17:03:14.237Z,5.53
2018-10-12T17:05:43.008Z,4.93
2018-10-12T17:08:11.974Z,4.43
2018-10-12T17:10:40.547Z,4.63
2018-10-12T17:13:09.314Z,7.43
2018-10-12T17:15:38.144Z,6.00
2018-10-12T17:18:06.884Z,5.33
2018-10-12T17:20:36.331Z,11.27
2018-10-12T17:23:05.058Z,5.53
2018-10-12T17:25:33.658Z,6.37
2018-10-12T17:28:02.186Z,6.03
2018-10-12T17:30:30.981Z,7.20
2018-10-12T17:32:59.670Z,7.30
2018-10-12T17:35:28.185Z,6.37
2018-10-12T17:37:57.870Z,6.90
2018-10-12T17:40:26.509Z,5.73
2018-10-12T17:42:55.131Z,4.30
2018-10-12T17:45:24.228Z,4.77
2018-10-12T17:47:53.889Z,4.77
2018-10-12T17:50:22.434Z,5.60
2018-10-12T17:52:51.142Z,6.07
2018-10-12T17:55:19.962Z,6.42
2018-10-12T17:57:49.456Z,6.90
2018-10-12T18:00:18.218Z,5.30
2018-10-12T18:02:46.589Z,7.83
2018-10-12T18:05:15.904Z,7.42
2018-10-12T18:07:44.533Z,5.30
2018-10-12T18:10:13.124Z,5.70
2018-10-12T18:12:43.005Z,8.27
2018-10-12T18:15:13.118Z,6.67
2018-10-12T18:17:41.889Z,7.93
2018-10-12T18:20:11.869Z,8.63
2018-10-12T18:22:40.473Z,8.93
2018-10-12T18:25:09.158Z,9.70
2018-10-12T18:27:37.777Z,5.20
2018-10-12T18:30:06.731Z,6.60
2018-10-12T18:32:35.325Z,9.60
2018-10-12T18:35:04.078Z,7.97
2018-10-12T18:37:32.758Z,8.55
2018-10-12T18:40:01.522Z,9.05
2018-10-12T18:42:30.292Z,8.43
2018-10-12T18:44:59.664Z,6.23
2018-10-12T18:47:28.188Z,7.05
2018-10-12T18:49:56.743Z,9.10
2018-10-12T18:52:25.520Z,8.67
2018-10-12T18:54:54.195Z,12.13
2018-10-12T18:57:22.853Z,10.17
2018-10-12T18:59:51.595Z,9.55
2018-10-12T19:02:20.242Z,9.38
2018-10-12T19:04:49.021Z,8.67
2018-10-12T19:07:18.484Z,5.57
2018-10-12T19:09:47.333Z,7.30
2018-10-12T19:12:15.993Z,6.93
2018-10-12T19:14:44.777Z,7.90
2018-10-12T19:17:13.418Z,7.40
2018-10-12T19:19:42.091Z,7.83
2018-10-12T19:22:10.679Z,8.27
2018-10-12T19:24:39.354Z,7.73
2018-10-12T19:27:08.761Z,6.77
2018-10-12T19:29:37.423Z,13.10
2018-10-12T19:32:06.127Z,8.27
2018-10-12T19:34:35.567Z,7.70
2018-10-12T19:37:04.232Z,8.40
2018-10-12T19:39:32.914Z,10.65
2018-10-12T19:42:01.561Z,12.67
2018-10-12T19:44:30.335Z,8.83
2018-10-12T19:46:58.978Z,11.20
2018-10-12T19:49:27.549Z,6.67
2018-10-12T19:51:56.133Z,9.20
2018-10-12T19:54:24.740Z,7.70
2018-10-12T19:56:53.337Z,7.50
2018-10-12T19:59:22.028Z,6.90
2018-10-12T20:01:51.489Z,10.67
2018-10-12T20:04:20.929Z,10.23
2018-10-12T20:06:49.593Z,7.77
2018-10-12T20:09:18.928Z,8.83
2018-10-12T20:11:47.654Z,7.03
2018-10-12T20:14:16.387Z,8.63
2018-10-12T20:16:45.028Z,7.67
2018-10-12T20:19:13.620Z,6.57
2018-10-12T20:21:42.158Z,6.27
2018-10-12T20:24:10.874Z,7.03
2018-10-12T20:26:39.518Z,8.43
2018-10-12T20:29:08.244Z,7.30
2018-10-12T20:31:36.944Z,8.20
2018-10-12T20:34:05.781Z,11.83
2018-10-12T20:36:34.392Z,9.37
2018-10-12T20:39:03.028Z,9.00
2018-10-12T20:41:31.533Z,10.90
2018-10-12T20:44:00.224Z,7.53
2018-10-12T20:46:29.615Z,6.27
2018-10-12T20:48:58.259Z,8.58
2018-10-12T20:51:26.970Z,10.37
2018-10-12T20:53:55.712Z,9.17
2018-10-12T20:56:25.298Z,6.85
2018-10-12T20:58:53.900Z,9.93
2018-10-12T21:01:22.559Z,9.30
2018-10-12T21:03:51.264Z,11.40
2018-10-12T21:06:19.797Z,7.97
2018-10-12T21:08:48.343Z,7.83
2018-10-12T21:11:16.993Z,7.30
2018-10-12T21:13:46.554Z,7.87
2018-10-12T21:16:15.763Z,7.00
2018-10-12T21:18:44.388Z,8.27
2018-10-12T21:21:12.978Z,8.63
2018-10-12T21:23:42.304Z,7.63
2018-10-12T21:26:11.233Z,7.80
2018-10-12T21:28:39.979Z,8.60
2018-10-12T21:31:08.742Z,10.47
2018-10-12T21:33:37.372Z,10.43
2018-10-12T21:36:06.078Z,6.93
2018-10-12T21:38:35.027Z,7.17
2018-10-12T21:41:03.573Z,6.72
2018-10-12T21:43:32.307Z,7.67
2018-10-12T21:46:00.959Z,5.77
2018-10-12T21:48:29.579Z,6.43
2018-10-12T21:50:59.361Z,9.00
2018-10-12T21:53:28.028Z,11.17
2018-10-12T21:55:56.788Z,5.40
2018-10-12T21:58:25.510Z,6.90
2018-10-12T22:01:04.483Z,9.23
2018-10-12T22:03:34.856Z,6.17
2018-10-12T22:06:03.519Z,6.70
2018-10-12T22:08:37.416Z,6.90
2018-10-12T22:11:06.778Z,9.47
2018-10-12T22:13:35.954Z,10.50
2018-10-12T22:16:05.422Z,7.92
2018-10-12T22:18:34.108Z,6.37
2018-10-12T22:21:05.114Z,7.45
2018-10-12T22:23:33.787Z,8.88
2018-10-12T22:26:02.850Z,7.35
2018-10-12T22:28:31.555Z,7.80
2018-10-12T22:31:00.192Z,10.03
2018-10-12T22:33:28.994Z,8.53
2018-10-12T22:35:57.490Z,10.13
2018-10-12T22:38:26.253Z,6.07
2018-10-12T22:40:55.078Z,6.87
2018-10-12T22:43:23.845Z,9.57
2018-10-12T22:45:52.824Z,7.57
2018-10-12T22:48:21.479Z,5.93
2018-10-12T22:50:50.971Z,7.80
2018-10-12T22:53:19.607Z,8.87
2018-10-12T22:55:48.748Z,10.73
2018-10-12T22:58:17.393Z,7.70
2018-10-12T23:00:47.254Z,6.67
2018-10-12T23:03:16.658Z,5.47
2018-10-12T23:05:45.472Z,4.57
2018-10-12T23:08:14.937Z,6.73
2018-10-12T23:10:43.912Z,10.87
2018-10-12T23:13:12.589Z,8.30
2018-10-12T23:15:41.619Z,5.17
2018-10-12T23:18:10.171Z,6.17
2018-10-12T23:20:38.981Z,6.30
2018-10-12T23:23:07.621Z,10.03
2018-10-12T23:25:36.307Z,7.77
2018-10-12T23:28:04.961Z,6.62
2018-10-12T23:30:33.773Z,6.70
2018-10-12T23:33:13.493Z,9.00
2018-10-12T23:35:42.222Z,7.47
2018-10-12T23:38:11.692Z,8.97
2018-10-12T23:40:40.387Z,10.10
2018-10-12T23:43:09.602Z,8.27
2018-10-12T23:45:38.461Z,9.47
2018-10-12T23:48:07.156Z,7.57
2018-10-12T23:50:36.069Z,10.43
2018-10-12T23:53:05.373Z,3.77
2018-10-12T23:55:34.126Z,9.53
2018-10-12T23:58:02.903Z,8.90
